Terminal Aerodrome Forecast
Issued by NWS

Home | Current Version | Previous Version | Graphics & Text | Print | Product List | Glossary On
Versions: 1 2 3 4 5 6 7 8 9 10 11 12 13 14 15 16 17 18 19 20 21 22 23 24 25 26 27 28 29 30 31 32 33 34 35 36
000
FTUS45 KGGW 291700
TAFGDV
TAF
KGDV 291722Z 2918/3018 VRB06KT P6SM SKC
     FM300600 VRB06KT P6SM BKN130
     FM301200 VRB04KT P6SM VCSH BKN110
     FM301500 15011KT P6SM VCSH BKN120
      AMD LTD TO CLD VIS AND WIND=

USA.gov is the U.S. government's official web portal to all federal, state and local government web resources and services.